createdAt,value
2022-09-27T00:01:50.605Z,1.13
2022-09-27T00:06:52.653Z,1.17
2022-09-27T00:11:54.685Z,1.00
2022-09-27T00:16:57.813Z,1.17
2022-09-27T00:21:59.821Z,1.03
2022-09-27T00:27:01.866Z,1.20
2022-09-27T00:32:05.499Z,1.10
2022-09-27T00:37:08.240Z,0.97
2022-09-27T00:42:11.148Z,1.17
2022-09-27T00:47:23.107Z,0.80
2022-09-27T00:52:29.320Z,0.90
2022-09-27T00:57:31.836Z,1.17
2022-09-27T01:02:36.521Z,0.97
2022-09-27T01:07:38.599Z,1.00
2022-09-27T01:12:50.908Z,0.70
2022-09-27T01:18:11.579Z,0.90
2022-09-27T01:23:36.883Z,0.90
2022-09-27T01:28:51.996Z,0.93
2022-09-27T01:34:02.025Z,0.80
2022-09-27T01:39:16.403Z,0.80
2022-09-27T01:44:27.672Z,0.67
2022-09-27T01:49:35.312Z,0.57
2022-09-27T01:54:41.140Z,0.77
2022-09-27T01:59:47.568Z,0.90
2022-09-27T02:04:55.762Z,0.80
2022-09-27T02:10:01.141Z,0.80
2022-09-27T02:15:06.807Z,0.80
2022-09-27T02:20:15.608Z,0.87
2022-09-27T02:25:24.545Z,0.70
2022-09-27T02:30:27.117Z,1.00
2022-09-27T02:35:32.995Z,0.87
2022-09-27T02:40:42.895Z,0.83
2022-09-27T02:45:59.879Z,1.10
2022-09-27T02:51:24.682Z,0.87
2022-09-27T02:56:35.136Z,0.80
2022-09-27T03:01:45.918Z,0.70
2022-09-27T03:06:50.992Z,0.70
2022-09-27T03:11:52.668Z,0.90
2022-09-27T03:16:54.882Z,0.83
2022-09-27T03:21:58.486Z,1.00
2022-09-27T03:27:00.286Z,1.10
2022-09-27T03:32:02.544Z,1.20
2022-09-27T03:37:05.807Z,1.10
2022-09-27T03:42:08.031Z,1.03
2022-09-27T03:47:10.265Z,0.90
2022-09-27T03:52:13.886Z,1.30
2022-09-27T03:57:16.397Z,1.30
2022-09-27T04:02:18.525Z,1.20
2022-09-27T04:07:22.206Z,1.07
2022-09-27T04:12:24.491Z,1.00
2022-09-27T04:17:26.560Z,1.30
2022-09-27T04:22:30.795Z,1.20
2022-09-27T04:27:32.871Z,1.20
2022-09-27T04:32:34.518Z,0.80
2022-09-27T04:37:38.213Z,4.10
2022-09-27T04:42:40.413Z,2.53
2022-09-27T04:47:43.552Z,2.23
2022-09-27T04:52:51.148Z,1.77
2022-09-27T04:57:53.210Z,1.50
2022-09-27T05:02:54.971Z,1.70
2022-09-27T05:07:58.099Z,1.70
2022-09-27T05:13:00.126Z,1.70
2022-09-27T05:18:02.256Z,1.40
2022-09-27T05:23:05.909Z,1.60
2022-09-27T05:28:07.925Z,2.00
2022-09-27T05:33:09.911Z,1.80
2022-09-27T05:38:13.340Z,2.40
2022-09-27T05:43:15.035Z,2.07
2022-09-27T05:48:17.221Z,1.80
2022-09-27T05:53:22.432Z,1.70
2022-09-27T05:58:24.471Z,1.83
2022-09-27T06:03:26.226Z,1.67
2022-09-27T06:08:29.583Z,1.87
2022-09-27T06:13:31.995Z,1.53
2022-09-27T06:18:34.467Z,1.93
2022-09-27T06:23:37.583Z,1.73
2022-09-27T06:28:39.263Z,1.60
2022-09-27T06:33:41.026Z,1.70
2022-09-27T06:38:44.004Z,1.80
2022-09-27T06:43:45.950Z,1.47
2022-09-27T06:48:47.897Z,1.60
2022-09-27T06:53:51.146Z,1.50
2022-09-27T06:58:53.314Z,1.77
2022-09-27T07:03:54.950Z,1.50
2022-09-27T07:08:57.943Z,1.50
2022-09-27T07:14:00.284Z,1.70
2022-09-27T07:19:02.516Z,1.70
2022-09-27T07:24:06.166Z,1.67
2022-09-27T07:29:07.909Z,1.40
2022-09-27T07:34:10.611Z,1.37
2022-09-27T07:39:13.942Z,1.13
2022-09-27T07:44:15.801Z,1.27
2022-09-27T07:49:17.762Z,1.17
2022-09-27T07:54:20.782Z,1.00
2022-09-27T07:59:22.765Z,0.90
2022-09-27T08:04:24.772Z,1.10
2022-09-27T08:09:27.783Z,1.33
2022-09-27T08:14:29.495Z,1.57
2022-09-27T08:19:31.683Z,1.10
2022-09-27T08:24:34.755Z,1.10
2022-09-27T08:29:36.432Z,1.37
2022-09-27T08:34:38.427Z,1.00
2022-09-27T08:39:45.541Z,1.30
2022-09-27T08:45:03.129Z,1.33
2022-09-27T08:50:18.065Z,1.00
2022-09-27T08:55:28.100Z,1.30
2022-09-27T09:00:29.905Z,1.20
2022-09-27T09:05:34.410Z,1.03
2022-09-27T09:10:51.394Z,1.40
2022-09-27T09:16:02.535Z,1.07
2022-09-27T09:21:14.890Z,1.17
2022-09-27T09:26:28.121Z,1.10
2022-09-27T09:31:41.249Z,1.43
2022-09-27T09:36:48.048Z,1.20
2022-09-27T09:42:12.639Z,1.10
2022-09-27T09:47:27.135Z,1.10
2022-09-27T09:52:40.145Z,1.30
2022-09-27T09:57:52.836Z,1.10
2022-09-27T10:02:57.875Z,1.60
2022-09-27T10:08:03.342Z,1.30
2022-09-27T10:13:15.020Z,1.23
2022-09-27T10:18:19.982Z,1.10
2022-09-27T10:23:23.643Z,1.10
2022-09-27T10:28:36.380Z,1.30
2022-09-27T10:33:51.672Z,1.47
2022-09-27T10:38:55.104Z,1.57
2022-09-27T10:44:18.721Z,1.67
2022-09-27T10:49:25.188Z,1.70
2022-09-27T10:54:29.396Z,1.43
2022-09-27T10:59:35.582Z,1.70
2022-09-27T11:04:38.566Z,1.63
2022-09-27T11:09:51.565Z,1.87
2022-09-27T11:14:58.989Z,0.70
2022-09-27T11:20:23.441Z,0.50
2022-09-27T11:25:34.333Z,0.40
2022-09-27T11:30:47.961Z,0.70
2022-09-27T11:35:56.496Z,1.00
2022-09-27T11:41:24.239Z,1.40
2022-09-27T11:46:40.239Z,1.30
2022-09-27T11:52:06.357Z,1.13
2022-09-27T11:57:17.175Z,1.30
2022-09-27T12:02:38.204Z,1.10
2022-09-27T12:07:47.645Z,1.23
2022-09-27T12:12:53.318Z,1.20
2022-09-27T12:18:13.788Z,1.00
2022-09-27T12:23:20.493Z,1.20
2022-09-27T12:28:31.209Z,1.33
2022-09-27T12:33:39.922Z,1.30
2022-09-27T12:38:47.525Z,1.20
2022-09-27T12:43:50.800Z,0.83
2022-09-27T12:49:05.561Z,0.80
2022-09-27T12:54:33.650Z,1.20
2022-09-27T13:00:11.654Z,1.00
2022-09-27T13:05:51.269Z,0.70
2022-09-27T13:11:08.450Z,0.77
2022-09-27T13:16:14.183Z,0.90
2022-09-27T13:22:03.027Z,0.60
2022-09-27T13:27:39.857Z,0.60
2022-09-27T13:33:23.130Z,0.90
2022-09-27T13:38:25.720Z,0.73
2022-09-27T13:44:01.610Z,0.90
2022-09-27T13:49:16.101Z,1.20
2022-09-27T13:54:41.522Z,1.00
2022-09-27T13:59:53.001Z,1.13
2022-09-27T14:05:03.568Z,1.30
2022-09-27T14:10:14.338Z,1.00
2022-09-27T14:15:24.031Z,1.40
2022-09-27T14:20:37.514Z,1.10
2022-09-27T14:25:48.047Z,1.23
2022-09-27T14:31:14.160Z,1.50
2022-09-27T14:36:30.824Z,1.40
2022-09-27T14:41:37.354Z,1.27
2022-09-27T14:46:39.786Z,1.70
2022-09-27T14:51:54.329Z,1.40
2022-09-27T14:57:07.593Z,1.50
2022-09-27T15:02:19.474Z,1.70
2022-09-27T15:07:28.982Z,2.20
2022-09-27T15:12:31.745Z,1.20
2022-09-27T15:17:42.502Z,1.67
2022-09-27T15:22:49.524Z,1.50
2022-09-27T15:27:55.551Z,1.80
2022-09-27T15:32:59.048Z,2.00
2022-09-27T15:38:32.785Z,1.90
2022-09-27T15:43:42.468Z,1.63
2022-09-27T15:48:45.191Z,1.73
2022-09-27T15:53:48.916Z,1.97
2022-09-27T15:58:51.141Z,1.83
2022-09-27T16:04:04.342Z,1.73
2022-09-27T16:09:15.817Z,1.87
2022-09-27T16:14:20.334Z,2.30
2022-09-27T16:19:22.875Z,1.30
2022-09-27T16:24:30.361Z,1.20
2022-09-27T16:29:32.759Z,0.80
2022-09-27T16:34:38.341Z,1.17
2022-09-27T16:39:42.151Z,0.87
2022-09-27T16:44:53.364Z,1.40
2022-09-27T16:49:55.922Z,0.73
2022-09-27T16:55:01.450Z,0.83
2022-09-27T17:00:04.739Z,0.80
2022-09-27T17:05:07.450Z,0.80
2022-09-27T17:10:10.694Z,0.80
2022-09-27T17:15:12.351Z,0.80
2022-09-27T17:20:14.160Z,1.20
2022-09-27T17:25:17.455Z,1.30
2022-09-27T17:30:19.090Z,1.33
2022-09-27T17:35:20.664Z,1.10
2022-09-27T17:40:23.658Z,1.60
2022-09-27T17:45:25.623Z,1.60
2022-09-27T17:50:27.301Z,1.20
2022-09-27T17:55:30.525Z,1.20
2022-09-27T18:00:32.176Z,1.30
2022-09-27T18:05:33.995Z,2.10
2022-09-27T18:10:37.302Z,1.60
2022-09-27T18:15:39.583Z,1.57
2022-09-27T18:20:41.867Z,1.70
2022-09-27T18:25:53.432Z,1.30
2022-09-27T18:31:00.639Z,1.30
2022-09-27T18:36:04.748Z,1.03
2022-09-27T18:41:09.602Z,1.90
2022-09-27T18:46:34.603Z,2.63
2022-09-27T18:51:38.634Z,1.90
2022-09-27T18:56:42.334Z,1.47
2022-09-27T19:01:45.239Z,1.70
2022-09-27T19:06:47.964Z,1.50
2022-09-27T19:11:51.225Z,1.60
2022-09-27T19:16:53.265Z,1.60
2022-09-27T19:21:54.983Z,1.17
2022-09-27T19:26:58.136Z,1.60
2022-09-27T19:32:00.268Z,1.30
2022-09-27T19:37:02.471Z,1.80
2022-09-27T19:42:05.662Z,0.90
2022-09-27T19:47:07.801Z,0.87
2022-09-27T19:52:09.749Z,1.17
2022-09-27T19:57:13.137Z,1.20
2022-09-27T20:02:15.192Z,1.10
2022-09-27T20:07:16.926Z,1.30
2022-09-27T20:12:19.911Z,1.20
2022-09-27T20:17:22.093Z,1.37
2022-09-27T20:22:23.686Z,1.30
2022-09-27T20:27:26.728Z,1.20
2022-09-27T20:32:28.727Z,0.87
2022-09-27T20:37:30.622Z,0.73
2022-09-27T20:42:33.815Z,0.67
2022-09-27T20:47:35.911Z,1.03
2022-09-27T20:52:37.538Z,1.23
2022-09-27T20:57:57.045Z,1.13
2022-09-27T21:02:59.801Z,1.30
2022-09-27T21:08:01.912Z,1.30
2022-09-27T21:13:05.269Z,1.30
2022-09-27T21:18:07.153Z,1.23
2022-09-27T21:23:08.785Z,1.40
2022-09-27T21:28:12.289Z,1.53
2022-09-27T21:33:14.450Z,1.10
2022-09-27T21:38:16.375Z,1.50
2022-09-27T21:43:19.668Z,1.87
2022-09-27T21:48:22.146Z,1.50
2022-09-27T21:53:24.384Z,1.40
2022-09-27T21:58:28.132Z,1.77
2022-09-27T22:03:29.725Z,1.73
2022-09-27T22:08:32.457Z,1.50
2022-09-27T22:13:36.002Z,1.47
2022-09-27T22:18:38.920Z,1.57
2022-09-27T22:23:41.001Z,1.60
2022-09-27T22:28:45.691Z,1.20
2022-09-27T22:33:52.522Z,1.30
2022-09-27T22:38:55.125Z,1.37
2022-09-27T22:43:58.179Z,1.20
2022-09-27T22:49:00.040Z,1.20
2022-09-27T22:54:02.045Z,1.40
2022-09-27T22:59:05.636Z,1.50
2022-09-27T23:04:09.618Z,1.97
2022-09-27T23:09:11.874Z,1.37
2022-09-27T23:14:14.883Z,1.60
2022-09-27T23:19:16.895Z,1.50
2022-09-27T23:24:18.544Z,1.47
2022-09-27T23:29:21.502Z,1.50
2022-09-27T23:34:23.497Z,1.23
2022-09-27T23:39:25.266Z,1.70
2022-09-27T23:44:28.729Z,1.63
2022-09-27T23:49:31.052Z,1.70
2022-09-27T23:54:32.683Z,1.73
2022-09-27T23:59:36.113Z,1.67
